Time;durP1;ratioP1;P1;durP2;ratioP2;P2;SDS_P1;SDS_P2;PMS_P1;PMS_P2;Temp;Humidity;BMP_temperature;BMP_pressure;BME280_temperature;BME280_humidity;BME280_pressure;Samples;Min_cycle;Max_cycle;Signal;HPM_P1;HPM_P2
2024/01/16 00:01:19;;;;;;;5.28;2.35;;;1.10;99.90;;;;;;5043171;28;20056;-82
2024/01/16 00:03:45;;;;;;;9.88;2.53;;;1.10;99.90;;;;;;5043682;28;20505;-84
2024/01/16 00:06:11;;;;;;;6.22;2.42;;;1.00;99.90;;;;;;5040497;28;20025;-83
2024/01/16 00:08:38;;;;;;;7.93;3.00;;;1.00;99.90;;;;;;5046116;28;20040;-82
2024/01/16 00:11:05;;;;;;;8.73;2.60;;;1.00;99.90;;;;;;5042431;28;20123;-83
2024/01/16 00:13:33;;;;;;;7.18;2.42;;;1.10;99.90;;;;;;5043565;28;20117;-83
2024/01/16 00:15:58;;;;;;;7.45;2.05;;;1.10;99.90;;;;;;5045916;28;20025;-80
2024/01/16 00:18:24;;;;;;;9.82;3.10;;;1.10;99.90;;;;;;5042478;28;20654;-84
2024/01/16 00:20:49;;;;;;;11.23;2.97;;;1.20;99.90;;;;;;5045547;28;20009;-83
2024/01/16 00:23:15;;;;;;;6.85;1.92;;;1.20;99.90;;;;;;5045031;28;20033;-86
2024/01/16 00:25:41;;;;;;;6.40;2.08;;;1.20;99.90;;;;;;5037754;28;20238;-84
2024/01/16 00:28:07;;;;;;;7.05;2.47;;;1.20;99.90;;;;;;5043510;28;20521;-83
2024/01/16 00:30:33;;;;;;;2.17;1.70;;;1.20;99.90;;;;;;5048832;28;20049;-82
2024/01/16 00:32:59;;;;;;;5.32;2.15;;;1.30;99.90;;;;;;5041762;28;20198;-86
2024/01/16 00:35:25;;;;;;;3.08;2.13;;;1.30;99.90;;;;;;5040897;28;20383;-83
2024/01/16 00:37:52;;;;;;;6.60;2.05;;;1.30;99.90;;;;;;5031267;28;20029;-80
2024/01/16 00:40:17;;;;;;;6.65;2.08;;;1.30;99.90;;;;;;5037696;28;20033;-84
2024/01/16 00:42:43;;;;;;;4.22;1.85;;;1.30;99.90;;;;;;5041170;28;20032;-82
2024/01/16 00:45:09;;;;;;;8.00;2.30;;;1.30;99.90;;;;;;5040722;28;20025;-82
2024/01/16 00:47:34;;;;;;;4.80;1.98;;;1.30;99.90;;;;;;5038173;28;20048;-81
2024/01/16 00:50:01;;;;;;;4.57;1.70;;;1.30;99.90;;;;;;5027306;28;20429;-83
2024/01/16 00:52:27;;;;;;;6.10;2.08;;;1.30;99.90;;;;;;5041521;28;20128;-86
2024/01/16 00:54:52;;;;;;;2.05;1.67;;;1.30;99.90;;;;;;5044780;28;20191;-82
2024/01/16 00:57:19;;;;;;;10.18;2.33;;;1.30;99.90;;;;;;5045560;28;20099;-82
2024/01/16 00:59:49;;;;;;;14.27;2.30;;;1.30;99.90;;;;;;5043624;28;20028;-82
2024/01/16 01:02:21;;;;;;;11.13;2.38;;;1.30;99.90;;;;;;5045856;28;20033;-81
2024/01/16 01:04:47;;;;;;;8.52;3.13;;;1.30;99.90;;;;;;5044282;28;20079;-83
2024/01/16 01:07:14;;;;;;;9.45;2.45;;;1.30;99.90;;;;;;5052850;28;20143;-82
2024/01/16 01:09:40;;;;;;;6.65;1.88;;;1.30;99.90;;;;;;5045606;28;20029;-86
2024/01/16 01:12:06;;;;;;;4.15;2.17;;;1.30;99.90;;;;;;5056530;28;20486;-83
2024/01/16 01:14:31;;;;;;;7.25;2.30;;;1.30;99.90;;;;;;5049238;28;20064;-85
2024/01/16 01:16:57;;;;;;;5.78;1.88;;;1.30;99.90;;;;;;5050694;28;20437;-82
2024/01/16 01:19:23;;;;;;;4.57;1.73;;;1.20;99.90;;;;;;5046173;28;20036;-83
2024/01/16 01:21:49;;;;;;;6.25;2.40;;;1.20;99.90;;;;;;5046344;28;20025;-81
2024/01/16 01:24:15;;;;;;;5.25;1.83;;;1.20;99.90;;;;;;5048504;28;20040;-82
2024/01/16 01:26:44;;;;;;;1.90;1.77;;;1.20;99.90;;;;;;5046608;28;20086;-82
2024/01/16 01:29:10;;;;;;;6.07;2.00;;;1.20;99.90;;;;;;5051035;28;20159;-82
2024/01/16 01:31:35;;;;;;;3.97;1.52;;;1.20;99.90;;;;;;5043026;28;20508;-82
2024/01/16 01:34:01;;;;;;;5.03;1.83;;;1.20;99.90;;;;;;5045448;28;20060;-82
2024/01/16 01:36:27;;;;;;;6.25;1.77;;;1.20;99.90;;;;;;5049171;28;20110;-83
2024/01/16 01:38:53;;;;;;;3.80;2.42;;;1.20;99.90;;;;;;5046543;28;20025;-81
2024/01/16 01:41:18;;;;;;;5.60;1.58;;;1.30;99.90;;;;;;5046631;28;20036;-81
2024/01/16 01:43:44;;;;;;;5.43;1.73;;;1.30;99.90;;;;;;5050889;28;20013;-82
2024/01/16 01:46:14;;;;;;;5.60;1.63;;;1.30;99.90;;;;;;5046958;28;20393;-83
2024/01/16 01:48:44;;;;;;;4.13;1.60;;;1.40;99.90;;;;;;5043705;28;20724;-82
2024/01/16 01:51:14;;;;;;;2.45;1.70;;;1.30;99.90;;;;;;5046210;28;20540;-82
2024/01/16 01:53:41;;;;;;;3.17;1.60;;;1.40;99.90;;;;;;5046310;28;20072;-83
2024/01/16 01:56:10;;;;;;;3.83;1.75;;;1.40;99.90;;;;;;5047071;28;20033;-83
2024/01/16 01:58:38;;;;;;;1.85;1.75;;;1.40;99.90;;;;;;5048034;28;20420;-84
2024/01/16 02:01:07;;;;;;;4.00;1.65;;;1.40;99.90;;;;;;5047416;28;20075;-82
2024/01/16 02:03:40;;;;;;;2.25;1.48;;;1.40;99.90;;;;;;5046051;28;20031;-81
2024/01/16 02:06:06;;;;;;;6.82;1.40;;;1.50;99.90;;;;;;5050490;28;20560;-82
2024/01/16 02:08:32;;;;;;;3.30;1.50;;;1.50;99.90;;;;;;5044869;28;20100;-82
2024/01/16 02:10:58;;;;;;;7.78;1.73;;;1.50;99.90;;;;;;5046846;28;20064;-82
2024/01/16 02:13:23;;;;;;;5.72;1.58;;;1.50;99.90;;;;;;5052989;28;20067;-82
2024/01/16 02:15:50;;;;;;;1.92;1.40;;;1.50;99.90;;;;;;5053796;28;20990;-87
2024/01/16 02:18:16;;;;;;;6.43;1.80;;;1.50;99.90;;;;;;5046053;28;20393;-82
2024/01/16 02:20:43;;;;;;;4.47;1.92;;;1.50;99.90;;;;;;5042982;28;20040;-83
2024/01/16 02:23:12;;;;;;;3.90;1.60;;;1.50;99.90;;;;;;5038038;28;20029;-82
2024/01/16 02:25:42;;;;;;;8.48;1.55;;;1.40;99.90;;;;;;5047106;28;20056;-82
2024/01/16 02:28:07;;;;;;;5.50;1.90;;;1.50;99.90;;;;;;5055427;28;20639;-81
2024/01/16 02:30:33;;;;;;;3.45;2.45;;;1.40;99.90;;;;;;5043014;28;20049;-85
2024/01/16 02:32:59;;;;;;;8.15;1.98;;;1.30;99.90;;;;;;5044279;28;20650;-85
2024/01/16 02:35:24;;;;;;;4.38;1.77;;;1.30;99.90;;;;;;5043227;28;20021;-82
2024/01/16 02:37:50;;;;;;;3.45;1.65;;;1.30;99.90;;;;;;5042029;28;20075;-82
2024/01/16 02:40:16;;;;;;;4.88;1.70;;;1.30;99.90;;;;;;5043340;28;20032;-84
2024/01/16 02:42:41;;;;;;;3.22;1.52;;;1.20;99.90;;;;;;5043764;28;20527;-82
2024/01/16 02:45:07;;;;;;;4.28;1.52;;;1.20;99.90;;;;;;5044374;28;20542;-84
2024/01/16 02:47:34;;;;;;;9.88;2.38;;;1.20;99.90;;;;;;5035916;28;20030;-83
2024/01/16 02:50:00;;;;;;;3.03;1.90;;;1.10;99.90;;;;;;5045636;28;20524;-82
2024/01/16 02:52:26;;;;;;;4.07;2.00;;;1.10;99.90;;;;;;5044773;28;20081;-85
2024/01/16 02:54:52;;;;;;;5.70;1.88;;;1.10;99.90;;;;;;5051638;28;20025;-83
2024/01/16 02:57:17;;;;;;;2.95;1.58;;;1.10;99.90;;;;;;5043989;28;20070;-84
2024/01/16 02:59:46;;;;;;;12.63;1.77;;;1.00;99.90;;;;;;5043630;28;20060;-82
2024/01/16 03:02:13;;;;;;;4.68;1.67;;;1.00;99.90;;;;;;5043691;28;20116;-82
2024/01/16 03:04:39;;;;;;;5.13;1.67;;;1.00;99.90;;;;;;5040057;28;21957;-82
2024/01/16 03:07:05;;;;;;;11.25;2.78;;;1.00;99.90;;;;;;5039518;28;20426;-81
2024/01/16 03:09:31;;;;;;;5.35;1.90;;;1.10;99.90;;;;;;5040860;28;20029;-84
2024/01/16 03:11:57;;;;;;;8.68;2.20;;;1.10;99.90;;;;;;5045842;28;20051;-83
2024/01/16 03:14:23;;;;;;;10.18;2.63;;;1.00;99.90;;;;;;5045163;28;20021;-82
2024/01/16 03:16:50;;;;;;;8.45;1.98;;;0.90;99.90;;;;;;5039810;28;20039;-81
2024/01/16 03:19:16;;;;;;;13.95;2.38;;;0.90;99.90;;;;;;5041642;28;20127;-82
2024/01/16 03:21:42;;;;;;;10.13;1.75;;;0.80;99.90;;;;;;5039512;28;20029;-82
2024/01/16 03:24:10;;;;;;;18.50;2.80;;;0.80;99.90;;;;;;5040245;28;20029;-86
2024/01/16 03:26:37;;;;;;;15.13;2.85;;;0.80;99.90;;;;;;5048417;28;20052;-82
2024/01/16 03:29:04;;;;;;;5.22;2.30;;;0.90;99.90;;;;;;5041952;28;20029;-84
2024/01/16 03:31:30;;;;;;;12.73;3.10;;;0.80;99.90;;;;;;5039576;28;20120;-81
2024/01/16 03:33:55;;;;;;;12.80;2.10;;;0.90;99.90;;;;;;5042605;28;20112;-82
2024/01/16 03:36:21;;;;;;;13.32;2.40;;;0.90;99.90;;;;;;5039909;28;20029;-82
2024/01/16 03:38:47;;;;;;;6.57;1.98;;;0.90;99.90;;;;;;5039962;28;20064;-83
2024/01/16 03:41:12;;;;;;;5.25;1.80;;;1.00;99.90;;;;;;5045052;28;20028;-82
2024/01/16 03:43:39;;;;;;;10.63;2.30;;;1.00;99.90;;;;;;5041628;28;20302;-83
2024/01/16 03:46:07;;;;;;;6.32;2.20;;;1.00;99.90;;;;;;5038216;28;20049;-81
2024/01/16 03:48:33;;;;;;;13.40;2.35;;;1.00;99.90;;;;;;5038178;28;20021;-83
2024/01/16 03:51:00;;;;;;;5.65;1.88;;;1.00;99.90;;;;;;5024440;28;20041;-82
2024/01/16 03:53:25;;;;;;;7.88;2.65;;;1.10;99.90;;;;;;5048051;28;20067;-82
2024/01/16 03:55:51;;;;;;;5.72;2.05;;;1.00;99.90;;;;;;5042414;28;20025;-83
2024/01/16 03:58:17;;;;;;;9.05;3.03;;;1.00;99.90;;;;;;5043909;28;20025;-81
2024/01/16 04:00:43;;;;;;;4.38;2.05;;;1.00;99.90;;;;;;5041250;28;20109;-82
2024/01/16 04:03:09;;;;;;;11.32;2.35;;;1.10;99.90;;;;;;5042135;28;20029;-83
2024/01/16 04:05:34;;;;;;;5.80;2.50;;;1.00;99.90;;;;;;5044991;28;20481;-81
2024/01/16 04:08:00;;;;;;;8.93;2.33;;;1.00;99.90;;;;;;5041342;28;20044;-84
2024/01/16 04:10:26;;;;;;;6.50;1.70;;;1.00;99.90;;;;;;5047572;28;20123;-82
2024/01/16 04:12:51;;;;;;;9.02;1.92;;;1.00;99.90;;;;;;5057488;28;20040;-83
2024/01/16 04:15:17;;;;;;;3.88;2.45;;;1.00;99.90;;;;;;5044024;28;20382;-83
2024/01/16 04:17:43;;;;;;;7.03;2.22;;;1.00;99.90;;;;;;5046160;28;20863;-82
2024/01/16 04:20:09;;;;;;;12.07;2.28;;;1.00;99.90;;;;;;5047138;28;20036;-83
2024/01/16 04:22:35;;;;;;;7.35;2.22;;;1.00;99.90;;;;;;5043520;28;20021;-86
2024/01/16 04:25:01;;;;;;;5.30;2.10;;;1.10;99.90;;;;;;5055207;28;20064;-81
2024/01/16 04:27:27;;;;;;;8.90;2.03;;;1.10;99.90;;;;;;5041469;28;20028;-83
2024/01/16 04:29:53;;;;;;;7.43;2.00;;;1.10;99.90;;;;;;5038516;28;20070;-82
2024/01/16 04:32:18;;;;;;;3.35;1.67;;;1.10;99.90;;;;;;5043657;28;20458;-81
2024/01/16 04:34:44;;;;;;;3.15;1.88;;;1.10;99.90;;;;;;5042615;28;20033;-82
2024/01/16 04:37:10;;;;;;;8.93;2.40;;;1.10;99.90;;;;;;5039238;28;20435;-82
2024/01/16 04:39:35;;;;;;;6.75;1.77;;;1.10;99.90;;;;;;5041703;28;20025;-84
2024/01/16 04:42:01;;;;;;;10.07;2.13;;;1.10;99.90;;;;;;5036594;28;20060;-82
2024/01/16 04:44:26;;;;;;;7.88;2.20;;;1.10;99.90;;;;;;5040614;28;20024;-83
2024/01/16 04:46:52;;;;;;;8.63;2.22;;;1.10;99.90;;;;;;5040750;28;20037;-82
2024/01/16 04:49:18;;;;;;;8.50;2.17;;;1.10;99.90;;;;;;5039226;28;20419;-82
2024/01/16 04:51:47;;;;;;;10.50;2.15;;;1.20;99.90;;;;;;5039461;28;20053;-82
2024/01/16 04:54:12;;;;;;;6.70;1.70;;;1.10;99.90;;;;;;5041181;28;20428;-82
2024/01/16 04:56:41;;;;;;;10.65;2.75;;;1.10;99.90;;;;;;5046897;28;20025;-82
2024/01/16 04:59:07;;;;;;;7.13;2.50;;;1.10;99.90;;;;;;5040284;28;20057;-83
2024/01/16 05:01:32;;;;;;;6.32;2.20;;;1.10;99.90;;;;;;5041090;28;20052;-81
2024/01/16 05:03:58;;;;;;;6.38;2.25;;;1.00;99.90;;;;;;5038688;28;20346;-82
2024/01/16 05:06:24;;;;;;;6.38;2.40;;;1.00;99.90;;;;;;5049434;28;20037;-82
2024/01/16 05:08:49;;;;;;;11.60;2.58;;;0.90;99.90;;;;;;5041903;28;20036;-81
2024/01/16 05:11:15;;;;;;;8.82;2.00;;;0.90;99.90;;;;;;5043053;28;20478;-81
2024/01/16 05:13:41;;;;;;;9.13;2.17;;;0.80;99.90;;;;;;5050032;28;20060;-82
2024/01/16 05:16:07;;;;;;;14.65;2.78;;;0.80;99.90;;;;;;5034575;28;20032;-83
2024/01/16 05:18:33;;;;;;;12.25;2.72;;;0.70;99.90;;;;;;5039444;28;20040;-83
2024/01/16 05:21:00;;;;;;;12.73;2.40;;;0.70;99.90;;;;;;5036625;28;20024;-81
2024/01/16 05:23:26;;;;;;;5.07;2.28;;;0.60;99.90;;;;;;5046859;28;20484;-86
2024/01/16 05:25:51;;;;;;;9.15;2.70;;;0.60;99.90;;;;;;5044967;28;20057;-85
2024/01/16 05:28:17;;;;;;;7.35;2.20;;;0.60;99.90;;;;;;5045184;28;20029;-84
2024/01/16 05:30:43;;;;;;;8.77;2.50;;;0.60;99.90;;;;;;5035728;28;20040;-85
2024/01/16 05:33:08;;;;;;;3.58;2.13;;;0.50;99.90;;;;;;5036779;28;20520;-82
2024/01/16 05:35:35;;;;;;;4.45;1.98;;;0.60;99.90;;;;;;5042777;28;20029;-82
2024/01/16 05:38:00;;;;;;;8.30;2.00;;;0.50;99.90;;;;;;5017479;28;20029;-81
2024/01/16 05:40:26;;;;;;;10.07;2.40;;;0.50;99.90;;;;;;5035203;28;20265;-82
2024/01/16 05:42:52;;;;;;;17.00;3.17;;;0.40;99.90;;;;;;5038446;28;20029;-81
2024/01/16 05:45:18;;;;;;;10.35;2.22;;;0.40;99.90;;;;;;5056144;28;20060;-80
2024/01/16 05:47:44;;;;;;;5.20;1.88;;;0.40;99.90;;;;;;5041203;28;20270;-83
2024/01/16 05:50:10;;;;;;;14.90;2.70;;;0.30;99.90;;;;;;5050605;28;20047;-85
2024/01/16 05:52:35;;;;;;;9.95;2.13;;;0.40;99.90;;;;;;5030127;28;20045;-84
2024/01/16 05:55:02;;;;;;;12.45;2.55;;;0.30;99.90;;;;;;5047424;28;20469;-85
2024/01/16 05:57:33;;;;;;;21.65;5.40;;;0.30;99.90;;;;;;5048964;28;20025;-81
2024/01/16 06:00:03;;;;;;;14.23;2.65;;;0.30;99.90;;;;;;5048238;28;20036;-81
2024/01/16 06:02:29;;;;;;;10.80;3.05;;;0.30;99.90;;;;;;5042891;28;20470;-83
2024/01/16 06:04:54;;;;;;;12.23;3.60;;;0.30;99.90;;;;;;5044968;28;20028;-80
2024/01/16 06:07:20;;;;;;;10.98;2.70;;;0.20;99.90;;;;;;5045319;28;20067;-81
2024/01/16 06:09:46;;;;;;;10.77;3.28;;;0.20;99.90;;;;;;5045929;28;20041;-82
2024/01/16 06:12:12;;;;;;;17.75;3.65;;;0.20;99.90;;;;;;5049900;28;20052;-79
2024/01/16 06:14:38;;;;;;;10.95;3.15;;;0.20;99.90;;;;;;5046577;28;20029;-82
2024/01/16 06:17:05;;;;;;;17.58;3.17;;;0.20;99.90;;;;;;5043918;28;20097;-85
2024/01/16 06:19:32;;;;;;;11.35;2.53;;;0.20;99.90;;;;;;5049031;28;20021;-86
2024/01/16 06:21:58;;;;;;;16.00;3.50;;;0.30;99.90;;;;;;5047087;28;20043;-80
2024/01/16 06:24:24;;;;;;;16.15;4.97;;;0.30;99.90;;;;;;5043748;28;20104;-81
2024/01/16 06:26:50;;;;;;;16.60;3.25;;;0.30;99.90;;;;;;5043461;28;20037;-80
2024/01/16 06:29:15;;;;;;;18.23;4.63;;;0.30;99.90;;;;;;5027358;28;20546;-81
2024/01/16 06:31:41;;;;;;;5.15;2.75;;;0.30;99.90;;;;;;5041602;28;20044;-81
2024/01/16 06:34:06;;;;;;;6.47;2.67;;;0.30;99.90;;;;;;5048927;28;20029;-80
2024/01/16 06:36:32;;;;;;;8.70;2.97;;;0.30;99.90;;;;;;5045321;28;20021;-81
2024/01/16 06:38:58;;;;;;;18.30;4.90;;;0.30;99.90;;;;;;5046714;28;20674;-84
2024/01/16 06:41:24;;;;;;;9.25;4.18;;;0.30;99.90;;;;;;5041068;28;20029;-80
2024/01/16 06:43:49;;;;;;;12.35;3.08;;;0.30;99.90;;;;;;5042979;28;20122;-83
2024/01/16 06:46:15;;;;;;;13.63;3.85;;;0.30;99.90;;;;;;5043390;28;20025;-82
2024/01/16 06:48:41;;;;;;;14.07;3.40;;;0.30;99.90;;;;;;5045108;28;20028;-81
2024/01/16 06:51:07;;;;;;;22.25;3.33;;;0.30;99.90;;;;;;5043336;28;20033;-81
2024/01/16 06:53:33;;;;;;;12.52;3.13;;;0.30;99.90;;;;;;5042289;28;20394;-84
2024/01/16 06:55:59;;;;;;;21.35;4.15;;;0.30;99.90;;;;;;5046763;28;20094;-81
2024/01/16 06:58:25;;;;;;;6.85;2.65;;;0.40;99.90;;;;;;5038191;28;20028;-84
2024/01/16 07:00:50;;;;;;;12.75;3.00;;;0.40;99.90;;;;;;5036968;28;20041;-81
2024/01/16 07:03:17;;;;;;;11.73;3.15;;;0.30;99.90;;;;;;5041426;28;20025;-81
2024/01/16 07:05:43;;;;;;;13.77;3.50;;;0.30;99.90;;;;;;5036881;28;20456;-81
2024/01/16 07:08:09;;;;;;;11.75;3.30;;;0.30;99.90;;;;;;5042522;28;20061;-80
2024/01/16 07:10:35;;;;;;;12.13;3.65;;;0.30;99.90;;;;;;5037848;28;20045;-80
2024/01/16 07:13:01;;;;;;;9.68;3.38;;;0.30;99.90;;;;;;5042825;28;20427;-81
2024/01/16 07:15:27;;;;;;;22.65;3.78;;;0.30;99.90;;;;;;5035300;28;20490;-79
2024/01/16 07:17:53;;;;;;;20.45;3.90;;;0.30;99.90;;;;;;5043689;28;20036;-81
2024/01/16 07:20:18;;;;;;;8.80;3.47;;;0.20;99.90;;;;;;5042143;28;20090;-80
2024/01/16 07:22:47;;;;;;;7.72;3.45;;;0.20;99.90;;;;;;5043422;28;20025;-82
2024/01/16 07:25:12;;;;;;;11.48;3.60;;;0.20;99.90;;;;;;5045655;28;20082;-82
2024/01/16 07:27:39;;;;;;;11.55;4.32;;;0.20;99.90;;;;;;5057804;28;20381;-80
2024/01/16 07:30:07;;;;;;;15.48;3.67;;;0.30;99.90;;;;;;5039580;28;20082;-82
2024/01/16 07:32:33;;;;;;;11.50;4.22;;;0.30;99.90;;;;;;5049846;28;20497;-84
2024/01/16 07:34:59;;;;;;;5.60;3.40;;;0.20;99.90;;;;;;5045310;28;20032;-79
2024/01/16 07:37:24;;;;;;;13.00;4.15;;;0.20;99.90;;;;;;5039707;28;20485;-85
2024/01/16 07:39:50;;;;;;;18.70;3.95;;;0.30;99.90;;;;;;5051398;28;20036;-89
2024/01/16 07:42:16;;;;;;;19.42;4.28;;;0.30;99.90;;;;;;5046700;28;20494;-83
2024/01/16 07:44:41;;;;;;;8.27;3.78;;;0.30;99.90;;;;;;5039953;28;20029;-84
2024/01/16 07:47:07;;;;;;;11.80;3.65;;;0.30;99.90;;;;;;5047616;28;20025;-84
2024/01/16 07:49:33;;;;;;;22.27;4.82;;;0.20;99.90;;;;;;5042854;28;20386;-84
2024/01/16 07:51:59;;;;;;;20.33;5.50;;;0.30;99.90;;;;;;5039772;28;20042;-85
2024/01/16 07:54:25;;;;;;;13.35;3.85;;;0.30;99.90;;;;;;5024432;28;20032;-87
2024/01/16 07:56:51;;;;;;;12.88;4.25;;;0.30;99.90;;;;;;5021893;28;20478;-86
2024/01/16 07:59:17;;;;;;;18.55;4.80;;;0.30;99.90;;;;;;5023427;28;20029;-85
2024/01/16 08:01:43;;;;;;;15.57;4.60;;;0.20;99.90;;;;;;5026961;28;20025;-84
2024/01/16 08:04:08;;;;;;;10.05;4.43;;;0.30;99.90;;;;;;5017367;28;20108;-87
2024/01/16 08:06:36;;;;;;;24.45;4.75;;;0.30;99.90;;;;;;5038177;28;20084;-87
2024/01/16 08:09:02;;;;;;;21.60;5.32;;;0.30;99.90;;;;;;5016984;28;20042;-84
2024/01/16 08:11:29;;;;;;;17.88;4.80;;;0.30;99.90;;;;;;5022587;28;20040;-85
2024/01/16 08:13:54;;;;;;;12.02;4.43;;;0.30;99.90;;;;;;5019102;28;20031;-79
2024/01/16 08:16:20;;;;;;;19.88;4.53;;;0.40;99.90;;;;;;5019361;28;20541;-82
2024/01/16 08:18:46;;;;;;;18.67;5.28;;;0.40;99.90;;;;;;5018731;28;20025;-80
2024/01/16 08:21:11;;;;;;;12.70;4.72;;;0.40;99.90;;;;;;5019513;28;20154;-82
2024/01/16 08:23:37;;;;;;;18.17;4.28;;;0.40;99.90;;;;;;5021243;28;20125;-79
2024/01/16 08:26:03;;;;;;;8.27;4.07;;;0.50;99.90;;;;;;5024383;28;20022;-83
2024/01/16 08:28:30;;;;;;;37.08;5.43;;;0.50;99.90;;;;;;5017468;28;20037;-81
2024/01/16 08:30:56;;;;;;;14.77;4.43;;;0.50;99.90;;;;;;5019544;28;20129;-80
2024/01/16 08:33:22;;;;;;;10.73;4.20;;;0.60;99.90;;;;;;5018799;28;20424;-79
2024/01/16 08:35:47;;;;;;;17.48;5.15;;;0.70;99.90;;;;;;5018872;28;20032;-81
2024/01/16 08:38:13;;;;;;;10.10;4.07;;;0.70;99.90;;;;;;5039796;28;20053;-79
2024/01/16 08:40:41;;;;;;;12.85;5.13;;;0.80;99.90;;;;;;5027728;28;20075;-86
2024/01/16 08:43:07;;;;;;;10.70;5.60;;;0.80;99.90;;;;;;5022655;28;20167;-81
2024/01/16 08:45:32;;;;;;;26.65;7.82;;;0.90;99.90;;;;;;5022004;28;20109;-79
2024/01/16 08:47:59;;;;;;;12.57;4.57;;;0.90;99.90;;;;;;5016626;28;20509;-82
2024/01/16 08:50:25;;;;;;;16.35;4.47;;;1.00;99.90;;;;;;5022617;28;20057;-83
2024/01/16 08:52:50;;;;;;;13.52;5.40;;;1.00;99.90;;;;;;5035577;28;21295;-83
2024/01/16 08:55:16;;;;;;;12.10;4.30;;;1.00;99.90;;;;;;5043422;28;20025;-81
2024/01/16 08:57:41;;;;;;;14.02;5.13;;;1.00;99.90;;;;;;5043426;28;20497;-80
2024/01/16 09:00:12;;;;;;;10.18;4.50;;;1.00;99.90;;;;;;5043290;28;20696;-81
2024/01/16 09:02:37;;;;;;;17.55;4.22;;;1.00;99.90;;;;;;5043701;28;20029;-84
2024/01/16 09:05:04;;;;;;;11.88;4.53;;;1.00;99.90;;;;;;5041565;28;20044;-81
2024/01/16 09:07:30;;;;;;;19.60;4.80;;;1.00;99.90;;;;;;5024514;28;20064;-83
2024/01/16 09:09:56;;;;;;;13.70;4.47;;;1.00;99.90;;;;;;5042739;28;20110;-81
2024/01/16 09:12:21;;;;;;;13.13;5.88;;;1.00;99.90;;;;;;5051909;28;20044;-85
2024/01/16 09:14:47;;;;;;;9.88;4.78;;;1.10;99.90;;;;;;5040076;28;20170;-80
2024/01/16 09:17:12;;;;;;;17.08;5.20;;;0.90;99.90;;;;;;5042142;28;20029;-80
2024/01/16 09:19:39;;;;;;;30.10;6.47;;;0.80;99.90;;;;;;5041287;28;20025;-84
2024/01/16 09:22:04;;;;;;;19.45;6.47;;;0.80;99.90;;;;;;5036137;28;20029;-82
2024/01/16 09:24:30;;;;;;;16.80;6.15;;;0.80;99.90;;;;;;5034055;28;20040;-82
2024/01/16 09:26:58;;;;;;;12.82;4.68;;;0.70;99.90;;;;;;5043511;28;20025;-82
2024/01/16 09:29:24;;;;;;;8.02;4.22;;;0.70;99.90;;;;;;5043848;28;20032;-83
2024/01/16 09:31:50;;;;;;;13.27;5.20;;;0.80;99.90;;;;;;5040200;28;20124;-85
2024/01/16 09:34:17;;;;;;;16.90;6.03;;;0.80;99.90;;;;;;5045104;28;20164;-85
2024/01/16 09:36:42;;;;;;;18.27;5.68;;;0.80;99.90;;;;;;5046429;28;20032;-85
2024/01/16 09:39:11;;;;;;;14.30;5.80;;;0.80;99.90;;;;;;5044186;28;20028;-82
2024/01/16 09:41:37;;;;;;;25.65;5.38;;;0.90;99.90;;;;;;5046141;28;20133;-82
2024/01/16 09:44:05;;;;;;;18.42;5.63;;;0.90;99.90;;;;;;5043927;28;20064;-83
2024/01/16 09:46:31;;;;;;;14.52;4.85;;;0.90;99.90;;;;;;5043253;28;20029;-81
2024/01/16 09:48:59;;;;;;;13.98;5.70;;;1.00;99.90;;;;;;5046845;28;20052;-79
2024/01/16 09:51:25;;;;;;;17.15;5.95;;;1.00;99.90;;;;;;5046713;28;20037;-81
2024/01/16 09:53:52;;;;;;;11.25;5.85;;;1.10;99.90;;;;;;5045156;28;20482;-80
2024/01/16 09:56:26;;;;;;;8.07;4.40;;;1.00;99.90;;;;;;5045505;28;20379;-82
2024/01/16 09:58:57;;;;;;;20.15;5.28;;;1.10;99.90;;;;;;5043477;28;20036;-80
2024/01/16 10:01:26;;;;;;;14.23;5.35;;;1.10;99.90;;;;;;5046765;28;20360;-83
2024/01/16 10:03:52;;;;;;;10.68;5.50;;;1.10;99.90;;;;;;5049904;28;20028;-80
2024/01/16 10:06:20;;;;;;;19.45;5.63;;;1.20;99.90;;;;;;5029536;28;20120;-85
2024/01/16 10:08:46;;;;;;;18.17;5.25;;;1.10;99.90;;;;;;5041723;28;20043;-80
2024/01/16 10:11:11;;;;;;;19.85;5.43;;;1.20;99.90;;;;;;5044199;28;20557;-86
2024/01/16 10:13:39;;;;;;;15.07;5.25;;;1.20;99.90;;;;;;5043483;28;20032;-80
2024/01/16 10:16:05;;;;;;;16.55;4.97;;;1.20;99.90;;;;;;5046564;28;20127;-80
2024/01/16 10:18:33;;;;;;;17.75;5.80;;;1.20;99.90;;;;;;5047635;28;20056;-80
2024/01/16 10:20:59;;;;;;;10.23;4.65;;;1.20;99.90;;;;;;5045682;28;20047;-80
2024/01/16 10:23:29;;;;;;;14.57;6.20;;;1.20;99.90;;;;;;5044363;28;20028;-80
2024/01/16 10:26:10;;;;;;;18.00;5.65;;;1.20;99.90;;;;;;5043587;28;20040;-79
2024/01/16 10:28:38;;;;;;;13.57;5.22;;;1.20;99.90;;;;;;5044530;28;20025;-80
2024/01/16 10:31:05;;;;;;;13.13;5.88;;;1.20;99.90;;;;;;5045053;28;20125;-80
2024/01/16 10:33:30;;;;;;;19.60;6.00;;;1.20;99.90;;;;;;5045694;28;20048;-81
2024/01/16 10:36:22;;;;;;;17.42;5.70;;;1.20;99.90;;;;;;5044679;28;20485;-79
2024/01/16 10:38:47;;;;;;;24.05;6.32;;;1.30;99.90;;;;;;5042334;28;20381;-82
2024/01/16 10:41:16;;;;;;;10.35;5.55;;;1.30;99.90;;;;;;5042488;28;20029;-82
2024/01/16 10:43:44;;;;;;;11.43;4.93;;;1.20;99.90;;;;;;5042398;28;20492;-81
2024/01/16 10:46:15;;;;;;;16.02;5.78;;;1.30;99.90;;;;;;5043386;28;20031;-80
2024/01/16 10:48:58;;;;;;;9.93;4.82;;;1.30;99.90;;;;;;5045323;28;20029;-84
2024/01/16 10:51:25;;;;;;;12.48;5.13;;;1.30;99.90;;;;;;5047773;28;20041;-81
2024/01/16 10:53:56;;;;;;;11.88;5.43;;;1.30;99.90;;;;;;5044533;28;20389;-80
2024/01/16 10:56:22;;;;;;;11.27;5.90;;;1.20;99.90;;;;;;5048804;28;20569;-81
2024/01/16 10:59:14;;;;;;;11.57;5.10;;;1.20;99.90;;;;;;5047098;28;20037;-83
2024/01/16 11:01:45;;;;;;;18.63;5.00;;;1.30;99.90;;;;;;5043055;28;20021;-82
2024/01/16 11:04:12;;;;;;;18.45;5.47;;;1.30;99.90;;;;;;5032811;28;20036;-80
2024/01/16 11:06:41;;;;;;;16.30;5.50;;;1.30;99.90;;;;;;5043700;28;20151;-81
2024/01/16 11:09:08;;;;;;;11.48;5.20;;;1.30;99.90;;;;;;5044010;28;20048;-80
2024/01/16 11:11:34;;;;;;;19.77;5.75;;;1.30;99.90;;;;;;5041552;28;20040;-80
2024/01/16 11:14:03;;;;;;;12.82;5.60;;;1.30;99.90;;;;;;5044888;28;20085;-81
2024/01/16 11:16:31;;;;;;;15.32;5.90;;;1.30;99.90;;;;;;5048164;28;20120;-80
2024/01/16 11:18:57;;;;;;;16.52;5.57;;;1.30;99.90;;;;;;5052040;28;20482;-82
2024/01/16 11:21:23;;;;;;;12.00;6.10;;;1.30;99.90;;;;;;5045556;28;20083;-80
2024/01/16 11:23:49;;;;;;;11.40;5.63;;;1.30;99.90;;;;;;5043016;28;20119;-80
2024/01/16 11:26:36;;;;;;;12.27;5.88;;;1.20;99.90;;;;;;5043385;28;20147;-81
2024/01/16 11:29:27;;;;;;;13.45;6.25;;;1.30;99.90;;;;;;5036696;28;20028;-82
2024/01/16 11:32:00;;;;;;;12.50;6.00;;;1.30;99.90;;;;;;5043035;28;20044;-80
2024/01/16 11:34:42;;;;;;;14.57;6.32;;;1.20;99.90;;;;;;5043253;28;20425;-81
2024/01/16 11:37:15;;;;;;;21.52;7.15;;;1.20;99.90;;;;;;5034254;28;20560;-80
2024/01/16 11:39:40;;;;;;;16.38;6.22;;;1.20;99.90;;;;;;5041085;28;20500;-81
2024/01/16 11:42:08;;;;;;;12.18;6.80;;;1.20;99.90;;;;;;5041853;28;20056;-82
2024/01/16 11:44:46;;;;;;;19.45;6.20;;;1.20;99.90;;;;;;5039548;28;20070;-81
2024/01/16 11:47:17;;;;;;;9.82;6.13;;;1.20;99.90;;;;;;5035989;28;20052;-80
2024/01/16 11:49:44;;;;;;;19.17;5.70;;;1.30;99.90;;;;;;5045034;28;20024;-80
2024/01/16 11:52:12;;;;;;;14.23;6.45;;;1.30;99.90;;;;;;5044452;28;20056;-79
2024/01/16 11:54:38;;;;;;;15.00;5.70;;;1.20;99.90;;;;;;5044648;28;20119;-80
2024/01/16 11:57:32;;;;;;;23.30;5.90;;;1.20;99.90;;;;;;5044147;28;20021;-81
2024/01/16 12:00:17;;;;;;;25.55;6.25;;;1.20;99.90;;;;;;5031798;28;20029;-80
2024/01/16 12:02:54;;;;;;;9.75;4.85;;;1.20;99.90;;;;;;5037794;28;20035;-80
2024/01/16 12:05:20;;;;;;;7.82;5.10;;;1.20;99.90;;;;;;5041808;28;20020;-81
2024/01/16 12:07:50;;;;;;;17.30;6.30;;;1.20;99.90;;;;;;5042042;28;20367;-85
2024/01/16 12:10:21;;;;;;;10.88;5.10;;;1.20;99.90;;;;;;5049171;28;20110;-79
2024/01/16 12:12:48;;;;;;;10.00;5.00;;;1.20;99.90;;;;;;5048159;28;20075;-81
2024/01/16 12:15:17;;;;;;;11.48;5.20;;;1.20;99.90;;;;;;5046019;28;20037;-82
2024/01/16 12:18:05;;;;;;;11.05;5.40;;;1.30;99.90;;;;;;5036400;28;20030;-81
2024/01/16 12:20:35;;;;;;;7.45;4.60;;;1.40;99.90;;;;;;5041351;28;20040;-81
2024/01/16 12:23:05;;;;;;;11.38;4.68;;;1.40;99.90;;;;;;5042836;28;20485;-81
2024/01/16 12:25:32;;;;;;;17.05;5.07;;;1.40;99.90;;;;;;5037669;28;20492;-79
2024/01/16 12:28:00;;;;;;;16.83;5.22;;;1.40;99.90;;;;;;5045272;28;20035;-80
2024/01/16 12:30:31;;;;;;;13.60;5.50;;;1.40;99.90;;;;;;5045701;28;20035;-80
2024/01/16 12:33:12;;;;;;;9.82;4.75;;;1.50;99.90;;;;;;5041442;28;20071;-80
2024/01/16 12:35:44;;;;;;;12.63;5.15;;;1.40;99.90;;;;;;5045005;28;20536;-79
2024/01/16 12:38:12;;;;;;;11.18;5.05;;;1.40;99.90;;;;;;5039498;28;20064;-79
2024/01/16 12:40:50;;;;;;;13.15;5.38;;;1.50;99.90;;;;;;5043484;28;20029;-80
2024/01/16 12:43:18;;;;;;;13.35;4.95;;;1.40;99.90;;;;;;5036740;28;20028;-81
2024/01/16 12:45:44;;;;;;;8.48;4.38;;;1.50;99.90;;;;;;5039445;28;20036;-83
2024/01/16 12:48:11;;;;;;;12.38;4.95;;;1.40;99.90;;;;;;5042568;28;20112;-83
2024/01/16 12:50:37;;;;;;;10.93;5.13;;;1.50;99.90;;;;;;5040697;28;20079;-81